Etusivu
METAR-TAF:

METAR-TAF

Lentoasemat :

Bridgeport, Kalifornia, Yhdysvallat

Leveyspiiri: 38-15-45N, Pituuspiiri: 119-13-33W, korkeus merenpinnasta: 1973 m

Tämänhetkinen sää

Tämä raportti tehtiin 46 minuuttia sitten, kello 19.52 UTC
Tuuli 17 kn lännestä/lounaasta puuskistuen 23 kn:hen
Lämpötila 26°C
Kosteus 9%
Ilmanpaine 1023 hPa
Näkyvyys: 16.1 km
selkeää

METAR: KBAN 031952Z AUTO 24017G23KT 10SM CLR 26/M09 A3020 RMK AO2 SLP129 T02611089 $

Aika: 13:38 (20:38 UTC)


TAF: puuttuu

Säähavainnot ja -ennusteet yli 4000 lentoasemalta (METAR- ja TAF-raportit).

Käytössä olevat sääasemat on merkitty karttaan keltaisilla ja punaisilla pisteillä.

Aseta hiiri pisteen päälle nähdäksesi sääaseman nimen.

Klikkaa sitten nähdäksesi säähavainnot ja -ennusteet.

Kartan vaihtaminen: klikkaa mustalla rastilla varustettuja vihreitä pisteitä, niin voit zoomata sisään; viivalla varustettua vihreää pistettä, niin voit zoomata ulos tai vihreitä nuolia, niin pääset viereisille kartoille.


METAR-TAF: